createdAt,value
2023-02-13T00:00:19.408Z,89.88
2023-02-13T00:03:22.150Z,89.86
2023-02-13T00:06:25.015Z,90.41
2023-02-13T00:09:28.184Z,90.47
2023-02-13T00:12:31.332Z,90.69
2023-02-13T00:15:38.644Z,90.60
2023-02-13T00:18:42.593Z,90.02
2023-02-13T00:21:46.944Z,89.93
2023-02-13T00:24:51.447Z,90.20
2023-02-13T00:28:01.619Z,89.92
2023-02-13T00:31:21.854Z,89.72
2023-02-13T00:34:25.294Z,89.30
2023-02-13T00:37:28.822Z,89.25
2023-02-13T00:40:31.770Z,88.89
2023-02-13T00:43:35.575Z,88.81
2023-02-13T00:46:38.881Z,88.20
2023-02-13T00:49:42.153Z,88.65
2023-02-13T00:52:46.222Z,89.11
2023-02-13T00:55:50.019Z,88.80
2023-02-13T00:58:55.680Z,89.05
2023-02-13T01:02:00.121Z,89.33
2023-02-13T01:05:04.998Z,88.94
2023-02-13T01:08:07.717Z,89.33
2023-02-13T01:11:12.339Z,89.43
2023-02-13T01:14:15.080Z,88.97
2023-02-13T01:17:18.754Z,88.76
2023-02-13T01:20:21.341Z,88.66
2023-02-13T01:23:25.652Z,88.91
2023-02-13T01:26:31.379Z,89.11
2023-02-13T01:29:38.845Z,89.03
2023-02-13T01:32:43.063Z,88.97
2023-02-13T01:35:46.884Z,88.98
2023-02-13T01:38:53.808Z,89.06
2023-02-13T01:41:57.738Z,89.28
2023-02-13T01:45:03.051Z,88.97
2023-02-13T01:48:14.367Z,88.49
2023-02-13T01:51:31.828Z,89.05
2023-02-13T01:54:35.590Z,89.17
2023-02-13T01:57:40.496Z,89.08
2023-02-13T02:00:49.739Z,88.90
2023-02-13T02:04:12.210Z,88.50
2023-02-13T02:07:22.195Z,87.97
2023-02-13T02:10:25.593Z,88.13
2023-02-13T02:13:28.693Z,88.40
2023-02-13T02:16:39.634Z,88.81
2023-02-13T02:19:59.847Z,88.37
2023-02-13T02:23:53.334Z,87.75
2023-02-13T02:26:59.186Z,88.11
2023-02-13T02:30:21.538Z,88.09
2023-02-13T02:33:45.491Z,88.43
2023-02-13T02:37:00.675Z,88.74
2023-02-13T02:40:23.501Z,88.57
2023-02-13T02:44:08.557Z,88.80
2023-02-13T02:47:46.326Z,89.34
2023-02-13T02:50:56.758Z,89.56
2023-02-13T02:54:03.770Z,88.89
2023-02-13T02:57:14.034Z,88.80
2023-02-13T03:00:39.257Z,89.18
2023-02-13T03:04:03.246Z,89.19
2023-02-13T03:07:10.550Z,88.78
2023-02-13T03:10:41.027Z,88.83
2023-02-13T03:13:48.119Z,88.25
2023-02-13T03:17:11.330Z,88.11
2023-02-13T03:20:58.458Z,88.62
2023-02-13T03:24:14.360Z,88.59
2023-02-13T03:27:44.680Z,89.44
2023-02-13T03:30:56.626Z,89.10
2023-02-13T03:34:24.513Z,88.64
2023-02-13T03:37:55.097Z,89.27
2023-02-13T03:41:20.536Z,88.92
2023-02-13T03:44:43.458Z,88.83
2023-02-13T03:47:50.156Z,88.84
2023-02-13T03:50:54.321Z,88.74
2023-02-13T03:54:01.982Z,88.81
2023-02-13T03:57:24.213Z,88.54
2023-02-13T04:00:31.450Z,88.61
2023-02-13T04:03:45.220Z,88.73
2023-02-13T04:07:09.477Z,88.89
2023-02-13T04:10:16.373Z,89.45
2023-02-13T04:13:30.132Z,89.56
2023-02-13T04:16:41.789Z,88.84
2023-02-13T04:19:46.064Z,88.43
2023-02-13T04:22:49.850Z,88.32
2023-02-13T04:25:56.633Z,88.70
2023-02-13T04:29:02.427Z,89.28
2023-02-13T04:32:06.582Z,89.45
2023-02-13T04:35:12.928Z,90.21
2023-02-13T04:38:16.645Z,90.51
2023-02-13T04:41:20.619Z,90.08
2023-02-13T04:44:26.668Z,89.91
2023-02-13T04:47:30.257Z,89.89
2023-02-13T04:50:36.971Z,89.15
2023-02-13T04:53:40.198Z,88.91
2023-02-13T04:56:56.318Z,89.17
2023-02-13T04:59:59.721Z,89.37
2023-02-13T05:03:12.511Z,88.83
2023-02-13T05:06:19.567Z,89.13
2023-02-13T05:09:22.952Z,89.65
2023-02-13T05:12:27.929Z,89.88
2023-02-13T05:15:31.424Z,89.54
2023-02-13T05:18:37.861Z,90.46
2023-02-13T05:22:00.557Z,90.48
2023-02-13T05:25:08.589Z,89.99
2023-02-13T05:28:37.007Z,89.42
2023-02-13T05:31:40.918Z,89.45
2023-02-13T05:34:44.220Z,89.51
2023-02-13T05:37:50.528Z,89.22
2023-02-13T05:40:54.434Z,89.91
2023-02-13T05:44:00.802Z,90.26
2023-02-13T05:47:05.487Z,90.64
2023-02-13T05:50:14.600Z,91.15
2023-02-13T05:53:18.607Z,91.14
2023-02-13T05:56:22.660Z,91.61
2023-02-13T05:59:27.438Z,91.03
2023-02-13T06:02:32.693Z,90.88
2023-02-13T06:05:38.050Z,90.09
2023-02-13T06:08:44.692Z,89.91
2023-02-13T06:11:58.952Z,89.90
2023-02-13T06:15:09.272Z,90.20
2023-02-13T06:18:29.009Z,90.21
2023-02-13T06:21:38.298Z,89.69
2023-02-13T06:24:50.343Z,89.01
2023-02-13T06:27:54.664Z,86.93
2023-02-13T06:30:59.470Z,86.18
2023-02-13T06:34:09.888Z,86.04
2023-02-13T06:37:29.325Z,85.56
2023-02-13T06:40:34.854Z,85.22
2023-02-13T06:43:39.925Z,85.47
2023-02-13T06:46:46.670Z,85.88
2023-02-13T06:49:52.072Z,85.07
2023-02-13T06:53:04.369Z,82.47
2023-02-13T06:56:08.654Z,78.87
2023-02-13T06:59:12.045Z,75.32
2023-02-13T07:02:19.262Z,73.87
2023-02-13T07:05:22.447Z,71.90
2023-02-13T07:08:30.982Z,71.45
2023-02-13T07:11:34.083Z,68.70
2023-02-13T07:14:38.485Z,66.00
2023-02-13T07:17:46.697Z,64.68
2023-02-13T07:20:56.902Z,64.07
2023-02-13T07:24:08.283Z,62.76
2023-02-13T07:27:19.702Z,63.55
2023-02-13T07:30:42.893Z,61.36
2023-02-13T07:33:51.337Z,59.69
2023-02-13T07:36:56.655Z,57.91
2023-02-13T07:40:05.685Z,58.12
2023-02-13T07:43:13.211Z,55.50
2023-02-13T07:46:19.668Z,54.58
2023-02-13T07:49:32.623Z,55.04
2023-02-13T07:52:39.993Z,52.65
2023-02-13T07:55:44.740Z,55.73
2023-02-13T07:58:50.224Z,53.70
2023-02-13T08:01:55.739Z,55.37
2023-02-13T08:05:00.000Z,52.31
2023-02-13T08:08:04.236Z,49.55
2023-02-13T08:11:42.811Z,49.31
2023-02-13T08:14:48.047Z,50.96
2023-02-13T08:17:52.740Z,50.64
2023-02-13T08:20:55.824Z,51.55
2023-02-13T08:23:59.662Z,49.26
2023-02-13T08:27:03.967Z,50.45
2023-02-13T08:30:11.771Z,49.44
2023-02-13T08:33:15.288Z,48.45
2023-02-13T08:36:21.454Z,46.00
2023-02-13T08:39:30.474Z,47.72
2023-02-13T08:42:49.363Z,46.57
2023-02-13T08:46:04.762Z,47.18
2023-02-13T08:49:10.438Z,46.19
2023-02-13T08:52:16.627Z,45.08
2023-02-13T08:55:23.558Z,44.14
2023-02-13T08:58:26.708Z,43.52
2023-02-13T09:01:34.588Z,45.65
2023-02-13T09:04:43.813Z,43.89
2023-02-13T09:07:55.457Z,41.07
2023-02-13T09:11:01.524Z,41.18
2023-02-13T09:14:06.916Z,40.86
2023-02-13T09:17:10.456Z,43.75
2023-02-13T09:20:15.009Z,41.02
2023-02-13T09:23:19.825Z,40.93
2023-02-13T09:26:37.461Z,39.98
2023-02-13T09:29:40.692Z,39.12
2023-02-13T09:33:08.337Z,41.53
2023-02-13T09:36:20.293Z,41.17
2023-02-13T09:39:25.072Z,40.47
2023-02-13T09:42:38.622Z,40.15
2023-02-13T09:46:00.748Z,40.43
2023-02-13T09:49:27.400Z,39.27
2023-02-13T09:52:36.454Z,37.70
2023-02-13T09:56:01.450Z,39.61
2023-02-13T09:59:25.846Z,36.24
2023-02-13T10:02:47.847Z,36.96
2023-02-13T10:05:53.038Z,36.05
2023-02-13T10:09:28.521Z,36.23
2023-02-13T10:12:58.793Z,35.70
2023-02-13T10:16:29.386Z,35.71
2023-02-13T10:19:37.671Z,35.77
2023-02-13T10:23:03.290Z,36.63
2023-02-13T10:26:27.295Z,35.37
2023-02-13T10:30:05.328Z,35.43
2023-02-13T10:33:19.709Z,34.57
2023-02-13T10:36:36.938Z,34.94
2023-02-13T10:39:46.789Z,34.59
2023-02-13T10:43:16.913Z,36.04
2023-02-13T10:46:55.435Z,37.61
2023-02-13T10:50:13.409Z,38.96
2023-02-13T10:53:51.272Z,37.69
2023-02-13T10:57:22.555Z,37.18
2023-02-13T11:00:32.462Z,37.61
2023-02-13T11:03:40.448Z,38.28
2023-02-13T11:07:08.318Z,38.57
2023-02-13T11:10:27.736Z,39.89
2023-02-13T11:13:37.819Z,40.28
2023-02-13T11:17:03.191Z,42.09
2023-02-13T11:20:26.912Z,42.80
2023-02-13T11:23:35.469Z,43.28
2023-02-13T11:27:05.999Z,44.22
2023-02-13T11:30:31.808Z,44.93
2023-02-13T11:33:37.304Z,47.04
2023-02-13T11:36:46.671Z,49.14
2023-02-13T11:40:02.300Z,49.79
2023-02-13T11:43:39.515Z,49.16
2023-02-13T11:46:51.500Z,48.68
2023-02-13T11:49:56.914Z,48.23
2023-02-13T11:53:25.273Z,48.23
2023-02-13T11:57:03.964Z,49.20
2023-02-13T12:00:40.683Z,48.68
2023-02-13T12:04:15.445Z,49.94
2023-02-13T12:07:29.917Z,51.36
2023-02-13T12:10:40.652Z,51.89
2023-02-13T12:14:03.316Z,52.25
2023-02-13T12:17:33.289Z,52.49
2023-02-13T12:20:51.860Z,52.60
2023-02-13T12:24:23.641Z,52.91
2023-02-13T12:28:13.246Z,52.79
2023-02-13T12:31:44.450Z,53.69
2023-02-13T12:35:08.448Z,53.89
2023-02-13T12:38:49.410Z,53.64
2023-02-13T12:42:26.635Z,54.35
2023-02-13T12:45:38.539Z,54.71
2023-02-13T12:48:57.959Z,55.26
2023-02-13T12:52:16.336Z,55.56
2023-02-13T12:56:10.022Z,54.50
2023-02-13T12:59:47.011Z,54.32
2023-02-13T13:21:47.633Z,55.11
2023-02-13T13:25:13.854Z,55.28
2023-02-13T13:28:39.291Z,55.62
2023-02-13T13:31:45.701Z,55.90
2023-02-13T13:34:57.316Z,56.17
2023-02-13T13:38:18.437Z,56.56
2023-02-13T13:41:38.289Z,56.33
2023-02-13T13:45:15.886Z,56.32
2023-02-13T13:48:22.636Z,56.69
2023-02-13T13:51:28.833Z,56.82
2023-02-13T13:54:36.760Z,57.04
2023-02-13T13:57:57.774Z,56.80
2023-02-13T14:01:29.408Z,56.96
2023-02-13T14:04:41.764Z,57.28
2023-02-13T14:07:55.247Z,57.72
2023-02-13T14:11:04.409Z,58.05
2023-02-13T14:14:27.421Z,58.01
2023-02-13T14:17:50.411Z,58.38
2023-02-13T14:20:59.526Z,58.54
2023-02-13T14:24:12.384Z,58.38
2023-02-13T14:27:34.400Z,58.34
2023-02-13T14:30:51.398Z,58.29
2023-02-13T14:34:12.321Z,58.27
2023-02-13T14:37:37.660Z,58.57
2023-02-13T14:40:52.418Z,58.70
2023-02-13T14:44:10.325Z,59.29
2023-02-13T14:47:25.607Z,59.39
2023-02-13T14:50:46.386Z,59.99
2023-02-13T14:54:04.066Z,60.16
2023-02-13T14:57:21.971Z,60.81
2023-02-13T15:00:34.049Z,61.18
2023-02-13T15:03:49.202Z,61.64
2023-02-13T15:07:08.431Z,62.28
2023-02-13T15:10:50.438Z,62.52
2023-02-13T15:13:56.609Z,62.84
2023-02-13T15:17:19.735Z,62.93
2023-02-13T15:20:38.397Z,63.42
2023-02-13T15:24:14.620Z,63.59
2023-02-13T15:27:25.379Z,63.55
2023-02-13T15:30:38.234Z,63.76
2023-02-13T15:33:53.340Z,64.30
2023-02-13T15:37:04.494Z,64.53
2023-02-13T15:40:41.542Z,64.44
2023-02-13T15:44:09.429Z,65.05
2023-02-13T15:47:28.644Z,64.97
2023-02-13T15:50:51.270Z,65.35
2023-02-13T15:54:13.264Z,65.47
2023-02-13T15:57:31.528Z,66.08
2023-02-13T16:00:37.907Z,66.03
2023-02-13T16:04:04.411Z,66.49
2023-02-13T16:07:21.284Z,66.70
2023-02-13T16:10:32.686Z,66.89
2023-02-13T16:13:37.416Z,67.02
2023-02-13T16:16:56.989Z,67.17
2023-02-13T16:20:20.851Z,67.72
2023-02-13T16:23:31.037Z,68.17
2023-02-13T16:26:39.400Z,68.11
2023-02-13T16:30:04.516Z,68.29
2023-02-13T16:33:27.452Z,68.20
2023-02-13T16:36:37.533Z,68.62
2023-02-13T16:39:43.878Z,68.75
2023-02-13T16:42:56.479Z,68.76
2023-02-13T16:46:47.953Z,68.56
2023-02-13T16:50:05.199Z,68.41
2023-02-13T16:53:08.826Z,68.38
2023-02-13T16:56:21.404Z,68.47
2023-02-13T16:59:37.344Z,68.61
2023-02-13T17:03:00.265Z,69.07
2023-02-13T17:06:19.424Z,69.61
2023-02-13T17:09:25.527Z,70.47
2023-02-13T17:12:38.358Z,71.20
2023-02-13T17:16:02.321Z,71.92
2023-02-13T17:19:22.386Z,72.79
2023-02-13T17:22:40.628Z,73.58
2023-02-13T17:25:49.885Z,73.88
2023-02-13T17:28:56.026Z,74.66
2023-02-13T17:32:06.461Z,75.01
2023-02-13T17:35:19.449Z,75.52
2023-02-13T17:38:30.596Z,75.85
2023-02-13T17:41:43.063Z,76.24
2023-02-13T17:44:59.480Z,76.50
2023-02-13T17:48:14.043Z,76.37
2023-02-13T17:51:32.423Z,76.34
2023-02-13T17:54:41.716Z,75.69
2023-02-13T17:58:04.361Z,76.10
2023-02-13T18:01:24.384Z,75.99
2023-02-13T18:04:30.685Z,76.01
2023-02-13T18:07:41.488Z,75.55
2023-02-13T18:10:46.216Z,75.81
2023-02-13T18:14:08.255Z,75.61
2023-02-13T18:17:27.375Z,76.48
2023-02-13T18:20:41.397Z,76.50
2023-02-13T18:23:46.358Z,77.08
2023-02-13T18:27:01.393Z,77.18
2023-02-13T18:30:19.329Z,77.56
2023-02-13T18:33:26.645Z,77.86
2023-02-13T18:36:45.243Z,78.19
2023-02-13T18:39:57.456Z,78.41
2023-02-13T18:43:15.649Z,78.78
2023-02-13T18:46:34.295Z,78.90
2023-02-13T18:49:46.735Z,79.72
2023-02-13T18:52:58.569Z,79.94
2023-02-13T18:56:20.289Z,80.19
2023-02-13T18:59:24.426Z,80.35
2023-02-13T19:02:39.762Z,80.66
2023-02-13T19:05:46.772Z,81.28
2023-02-13T19:08:55.650Z,81.76
2023-02-13T19:12:06.398Z,81.93
2023-02-13T19:15:27.277Z,82.58
2023-02-13T19:18:44.253Z,82.92
2023-02-13T19:21:48.584Z,83.36
2023-02-13T19:24:55.331Z,83.72
2023-02-13T19:27:59.522Z,83.93
2023-02-13T19:31:11.481Z,84.41
2023-02-13T19:34:21.391Z,85.12
2023-02-13T19:37:28.419Z,85.55
2023-02-13T19:40:42.462Z,85.81
2023-02-13T19:43:51.416Z,86.06
2023-02-13T19:47:23.282Z,86.09
2023-02-13T19:50:42.295Z,86.43
2023-02-13T19:53:57.885Z,86.53
2023-02-13T19:57:11.637Z,86.61
2023-02-13T20:00:34.798Z,86.61
2023-02-13T20:03:43.060Z,86.99
2023-02-13T20:07:02.397Z,87.65
2023-02-13T20:10:23.274Z,87.91
2023-02-13T20:13:34.325Z,88.41
2023-02-13T20:16:53.258Z,88.36
2023-02-13T20:20:04.116Z,88.37
2023-02-13T20:23:08.558Z,88.42
2023-02-13T20:26:27.235Z,89.02
2023-02-13T20:29:38.443Z,89.98
2023-02-13T20:32:44.322Z,90.10
2023-02-13T20:35:51.453Z,90.99
2023-02-13T20:39:00.854Z,91.30
2023-02-13T20:42:16.417Z,91.01
2023-02-13T20:45:23.624Z,90.97
2023-02-13T20:48:37.403Z,90.80
2023-02-13T20:51:43.306Z,90.98
2023-02-13T20:54:55.192Z,91.67
2023-02-13T20:57:58.581Z,91.10
2023-02-13T21:01:10.663Z,91.27
2023-02-13T21:04:22.376Z,91.61
2023-02-13T21:07:26.914Z,91.55
2023-02-13T21:10:47.635Z,91.88
2023-02-13T21:13:53.362Z,91.97
2023-02-13T21:17:02.327Z,91.46
2023-02-13T21:20:07.053Z,91.64
2023-02-13T21:23:20.250Z,91.71
2023-02-13T21:26:26.319Z,91.36
2023-02-13T21:29:30.866Z,90.97
2023-02-13T21:32:51.920Z,90.74
2023-02-13T21:36:14.650Z,90.91
2023-02-13T21:39:22.690Z,90.52
2023-02-13T21:42:27.008Z,90.35
2023-02-13T21:45:31.617Z,90.77
2023-02-13T21:48:34.731Z,91.06
2023-02-13T21:51:38.641Z,91.30
2023-02-13T21:54:41.557Z,91.77
2023-02-13T21:57:52.206Z,92.30
2023-02-13T22:00:57.000Z,92.54
2023-02-13T22:04:04.773Z,93.12
2023-02-13T22:07:07.984Z,93.31
2023-02-13T22:10:11.360Z,93.33
2023-02-13T22:13:16.083Z,93.32
2023-02-13T22:16:23.361Z,93.71
2023-02-13T22:19:26.543Z,92.95
2023-02-13T22:22:29.841Z,92.30
2023-02-13T22:25:32.768Z,92.75
2023-02-13T22:28:35.864Z,92.77
2023-02-13T22:31:39.434Z,93.21
2023-02-13T22:34:42.899Z,93.58
2023-02-13T22:37:51.911Z,93.57
2023-02-13T22:40:55.789Z,93.85
2023-02-13T22:43:58.538Z,93.64
2023-02-13T22:47:07.278Z,93.84
2023-02-13T22:50:10.401Z,93.51
2023-02-13T22:53:13.721Z,93.57
2023-02-13T22:56:16.696Z,93.67
2023-02-13T22:59:19.904Z,93.61
2023-02-13T23:02:23.433Z,93.39
2023-02-13T23:05:27.040Z,93.50
2023-02-13T23:08:31.692Z,93.40
2023-02-13T23:11:57.357Z,93.41
2023-02-13T23:15:00.619Z,93.04
2023-02-13T23:18:13.386Z,92.85
2023-02-13T23:21:16.124Z,92.63
2023-02-13T23:24:19.254Z,92.55
2023-02-13T23:27:21.992Z,92.39
2023-02-13T23:30:26.222Z,92.23
2023-02-13T23:33:29.755Z,92.13
2023-02-13T23:36:32.749Z,92.02
2023-02-13T23:39:35.522Z,91.88
2023-02-13T23:42:39.635Z,91.96
2023-02-13T23:45:43.088Z,91.79
2023-02-13T23:48:46.770Z,91.82
2023-02-13T23:51:49.785Z,91.58
2023-02-13T23:54:53.068Z,91.34
2023-02-13T23:57:55.849Z,91.35
